Time,TemperatureF,DewpointF,PressureIn,WindDirection,WindDirectionDegrees,WindSpeedMPH,WindSpeedGustMPH,Humidity,HourlyPrecipIn,Conditions,Clouds,dailyrainin,SoftwareType,DateUTC
2013-05-02 00:00:00,68.4,48.2,29.29,North,-999,-999.0,0.0,49,0.00,,,0.00,WeatherTracker,2013-05-02 05:00:00,
2013-05-02 00:10:00,64.0,37.4,29.32,North,-999,-999.0,0.0,37,0.00,,,0.00,WeatherTracker,2013-05-02 05:10:00,
2013-05-02 00:15:00,62.2,35.6,29.32,North,-999,-999.0,0.0,38,0.00,,,0.00,WeatherTracker,2013-05-02 05:15:00,
2013-05-02 00:25:00,60.1,35.6,29.32,North,-999,-999.0,0.0,39,0.00,,,0.00,WeatherTracker,2013-05-02 05:25:00,
2013-05-02 00:30:00,59.2,35.6,29.32,North,-999,-999.0,0.0,41,0.00,,,0.00,WeatherTracker,2013-05-02 05:30:00,
2013-05-02 00:35:00,58.6,35.6,29.32,North,-999,-999.0,0.0,42,0.00,,,0.00,WeatherTracker,2013-05-02 05:35:00,
2013-05-02 00:40:00,58.1,35.6,29.32,North,-999,-999.0,0.0,42,0.00,,,0.00,WeatherTracker,2013-05-02 05:40:00,
2013-05-02 00:45:00,57.9,35.6,29.32,North,-999,-999.0,0.0,43,0.00,,,0.00,WeatherTracker,2013-05-02 05:45:00,
2013-05-02 00:50:00,57.7,37.4,29.32,North,-999,-999.0,0.0,44,0.00,,,0.00,WeatherTracker,2013-05-02 05:50:00,
2013-05-02 01:00:00,57.4,37.4,29.32,North,-999,-999.0,0.0,45,0.00,,,0.00,WeatherTracker,2013-05-02 06:00:00,
2013-05-02 01:10:00,57.0,37.4,29.35,North,-999,-999.0,0.0,46,0.00,,,0.00,WeatherTracker,2013-05-02 06:10:00,
2013-05-02 01:15:00,56.8,35.6,29.35,North,-999,-999.0,0.0,45,0.00,,,0.00,WeatherTracker,2013-05-02 06:15:00,
2013-05-02 01:25:00,56.3,37.4,29.35,North,-999,-999.0,0.0,46,0.00,,,0.00,WeatherTracker,2013-05-02 06:25:00,
2013-05-02 01:35:00,55.6,35.6,29.35,North,-999,-999.0,0.0,46,0.00,,,0.00,WeatherTracker,2013-05-02 06:35:00,
2013-05-02 01:40:00,55.4,35.6,29.35,North,-999,-999.0,0.0,47,0.00,,,0.00,WeatherTracker,2013-05-02 06:40:00,
2013-05-02 01:45:00,55.0,35.6,29.35,North,-999,-999.0,0.0,47,0.00,,,0.00,WeatherTracker,2013-05-02 06:45:00,
2013-05-02 01:55:00,54.5,35.6,29.35,North,-999,-999.0,0.0,48,0.00,,,0.00,WeatherTracker,2013-05-02 06:55:00,
2013-05-02 02:00:00,54.3,35.6,29.35,North,-999,-999.0,0.0,48,0.00,,,0.00,WeatherTracker,2013-05-02 07:00:00,
2013-05-02 02:10:00,54.0,35.6,29.35,North,-999,-999.0,0.0,48,0.00,,,0.00,WeatherTracker,2013-05-02 07:10:00,
2013-05-02 02:15:00,53.8,35.6,29.35,North,-999,-999.0,0.0,48,0.00,,,0.00,WeatherTracker,2013-05-02 07:15:00,
2013-05-02 02:25:00,53.1,33.8,29.35,North,-999,-999.0,0.0,49,0.00,,,0.00,WeatherTracker,2013-05-02 07:25:00,
2013-05-02 02:30:00,52.9,33.8,29.35,North,-999,-999.0,0.0,49,0.00,,,0.00,WeatherTracker,2013-05-02 07:30:00,
2013-05-02 02:40:00,52.3,33.8,29.35,North,-999,-999.0,0.0,49,0.00,,,0.00,WeatherTracker,2013-05-02 07:40:00,
2013-05-02 02:45:00,52.2,33.8,29.35,North,-999,-999.0,0.0,49,0.00,,,0.00,WeatherTracker,2013-05-02 07:45:00,
2013-05-02 02:55:00,52.0,33.8,29.38,North,-999,-999.0,0.0,50,0.00,,,0.00,WeatherTracker,2013-05-02 07:55:00,
2013-05-02 03:00:00,51.8,33.8,29.38,North,-999,-999.0,0.0,50,0.00,,,0.00,WeatherTracker,2013-05-02 08:00:00,
2013-05-02 03:05:00,51.8,33.8,29.38,North,-999,-999.0,0.0,50,0.00,,,0.00,WeatherTracker,2013-05-02 08:05:00,
2013-05-02 03:10:00,51.8,33.8,29.38,North,-999,-999.0,0.0,50,0.00,,,0.00,WeatherTracker,2013-05-02 08:10:00,
2013-05-02 03:20:00,51.8,33.8,29.38,North,-999,-999.0,0.0,50,0.00,,,0.00,WeatherTracker,2013-05-02 08:20:00,
2013-05-02 03:25:00,51.6,33.8,29.38,North,-999,-999.0,0.0,50,0.00,,,0.00,WeatherTracker,2013-05-02 08:25:00,
2013-05-02 03:30:00,51.6,33.8,29.38,North,-999,-999.0,0.0,50,0.00,,,0.00,WeatherTracker,2013-05-02 08:30:00,
2013-05-02 03:35:00,51.4,33.8,29.38,North,-999,-999.0,0.0,50,0.00,,,0.00,WeatherTracker,2013-05-02 08:35:00,
2013-05-02 03:40:00,51.4,33.8,29.38,North,-999,-999.0,0.0,50,0.00,,,0.00,WeatherTracker,2013-05-02 08:40:00,
2013-05-02 03:50:00,51.1,33.8,29.38,North,-999,-999.0,0.0,50,0.00,,,0.00,WeatherTracker,2013-05-02 08:50:00,
2013-05-02 03:55:00,50.7,33.8,29.38,North,-999,-999.0,0.0,50,0.00,,,0.00,WeatherTracker,2013-05-02 08:55:00,
2013-05-02 04:05:00,50.2,32.0,29.38,North,-999,-999.0,0.0,50,0.00,,,0.00,WeatherTracker,2013-05-02 09:05:00,
2013-05-02 04:15:00,50.0,33.8,29.38,North,-999,-999.0,0.0,51,0.00,,,0.00,WeatherTracker,2013-05-02 09:15:00,
2013-05-02 04:20:00,50.0,33.8,29.38,North,-999,-999.0,0.0,51,0.00,,,0.00,WeatherTracker,2013-05-02 09:20:00,
2013-05-02 04:30:00,49.6,32.0,29.41,North,-999,-999.0,0.0,51,0.00,,,0.00,WeatherTracker,2013-05-02 09:30:00,
2013-05-02 04:35:00,49.6,33.8,29.41,North,-999,-999.0,0.0,52,0.00,,,0.00,WeatherTracker,2013-05-02 09:35:00,
2013-05-02 04:40:00,49.6,33.8,29.41,North,-999,-999.0,0.0,52,0.00,,,0.00,WeatherTracker,2013-05-02 09:40:00,
2013-05-02 04:45:00,49.6,33.8,29.41,North,-999,-999.0,0.0,52,0.00,,,0.00,WeatherTracker,2013-05-02 09:45:00,
2013-05-02 04:55:00,49.1,32.0,29.41,North,-999,-999.0,0.0,51,0.00,,,0.00,WeatherTracker,2013-05-02 09:55:00,
2013-05-02 05:05:00,48.7,32.0,29.41,North,-999,-999.0,0.0,51,0.00,,,0.00,WeatherTracker,2013-05-02 10:05:00,
2013-05-02 05:10:00,48.7,32.0,29.41,North,-999,-999.0,0.0,51,0.00,,,0.00,WeatherTracker,2013-05-02 10:10:00,
2013-05-02 05:20:00,48.4,32.0,29.41,North,-999,-999.0,0.0,51,0.00,,,0.00,WeatherTracker,2013-05-02 10:20:00,
2013-05-02 05:25:00,48.4,32.0,29.41,North,-999,-999.0,0.0,52,0.00,,,0.00,WeatherTracker,2013-05-02 10:25:00,
2013-05-02 05:35:00,48.2,32.0,29.41,North,-999,-999.0,0.0,52,0.00,,,0.00,WeatherTracker,2013-05-02 10:35:00,
2013-05-02 05:40:00,48.2,32.0,29.41,North,-999,-999.0,0.0,52,0.00,,,0.00,WeatherTracker,2013-05-02 10:40:00,
2013-05-02 05:50:00,48.0,32.0,29.41,North,-999,-999.0,0.0,53,0.00,,,0.00,WeatherTracker,2013-05-02 10:50:00,
2013-05-02 05:55:00,48.0,32.0,29.41,North,-999,-999.0,0.0,53,0.00,,,0.00,WeatherTracker,2013-05-02 10:55:00,
2013-05-02 06:05:00,47.8,32.0,29.41,North,-999,-999.0,0.0,53,0.00,,,0.00,WeatherTracker,2013-05-02 11:05:00,
2013-05-02 06:15:00,47.7,32.0,29.41,North,-999,-999.0,0.0,53,0.00,,,0.00,WeatherTracker,2013-05-02 11:15:00,
2013-05-02 06:20:00,47.7,32.0,29.41,North,-999,-999.0,0.0,53,0.00,,,0.00,WeatherTracker,2013-05-02 11:20:00,
2013-05-02 06:25:00,47.7,32.0,29.41,North,-999,-999.0,0.0,53,0.00,,,0.00,WeatherTracker,2013-05-02 11:25:00,
2013-05-02 06:35:00,47.7,32.0,29.41,North,-999,-999.0,0.0,54,0.00,,,0.00,WeatherTracker,2013-05-02 11:35:00,
2013-05-02 06:40:00,47.8,33.8,29.41,North,-999,-999.0,0.0,54,0.00,,,0.00,WeatherTracker,2013-05-02 11:40:00,
2013-05-02 06:50:00,47.8,33.8,29.41,North,-999,-999.0,0.0,54,0.00,,,0.00,WeatherTracker,2013-05-02 11:50:00,
2013-05-02 06:55:00,47.7,32.0,29.41,North,-999,-999.0,0.0,54,0.00,,,0.00,WeatherTracker,2013-05-02 11:55:00,
2013-05-02 07:05:00,47.7,32.0,29.41,North,-999,-999.0,0.0,54,0.00,,,0.00,WeatherTracker,2013-05-02 12:05:00,
2013-05-02 07:10:00,47.7,32.0,29.44,North,-999,-999.0,0.0,54,0.00,,,0.00,WeatherTracker,2013-05-02 12:10:00,
2013-05-02 07:20:00,47.7,32.0,29.44,North,-999,-999.0,0.0,54,0.00,,,0.00,WeatherTracker,2013-05-02 12:20:00,
2013-05-02 07:25:00,47.7,32.0,29.44,North,-999,-999.0,0.0,54,0.00,,,0.00,WeatherTracker,2013-05-02 12:25:00,
2013-05-02 07:30:00,47.7,32.0,29.44,North,-999,-999.0,0.0,55,0.00,,,0.00,WeatherTracker,2013-05-02 12:30:00,
2013-05-02 07:35:00,47.7,32.0,29.44,North,-999,-999.0,0.0,54,0.00,,,0.00,WeatherTracker,2013-05-02 12:35:00,
2013-05-02 07:45:00,47.7,32.0,29.44,North,-999,-999.0,0.0,55,0.00,,,0.00,WeatherTracker,2013-05-02 12:45:00,
2013-05-02 07:50:00,47.5,33.8,29.44,North,-999,-999.0,0.0,56,0.00,,,0.00,WeatherTracker,2013-05-02 12:50:00,
2013-05-02 08:00:00,47.3,33.8,29.44,North,-999,-999.0,0.0,59,0.00,,,0.00,WeatherTracker,2013-05-02 13:00:00,
2013-05-02 08:05:00,47.1,33.8,29.44,North,-999,-999.0,0.0,60,0.00,,,0.00,WeatherTracker,2013-05-02 13:05:00,
2013-05-02 08:10:00,47.3,35.6,29.47,North,-999,-999.0,0.0,60,0.00,,,0.00,WeatherTracker,2013-05-02 13:10:00,
2013-05-02 08:15:00,47.3,35.6,29.47,North,-999,-999.0,0.0,61,0.00,,,0.00,WeatherTracker,2013-05-02 13:15:00,
2013-05-02 08:20:00,47.3,35.6,29.47,North,-999,-999.0,0.0,61,0.00,,,0.00,WeatherTracker,2013-05-02 13:20:00,
2013-05-02 08:25:00,47.3,35.6,29.47,North,-999,-999.0,0.0,61,0.00,,,0.00,WeatherTracker,2013-05-02 13:25:00,
2013-05-02 08:35:00,47.3,35.6,29.47,North,-999,-999.0,0.0,60,0.00,,,0.00,WeatherTracker,2013-05-02 13:35:00,
2013-05-02 08:40:00,47.3,35.6,29.47,North,-999,-999.0,0.0,60,0.00,,,0.00,WeatherTracker,2013-05-02 13:40:00,
2013-05-02 08:50:00,47.3,35.6,29.47,North,-999,-999.0,0.0,61,0.00,,,0.00,WeatherTracker,2013-05-02 13:50:00,
2013-05-02 08:55:00,47.3,35.6,29.47,North,-999,-999.0,0.0,60,0.00,,,0.00,WeatherTracker,2013-05-02 13:55:00,
2013-05-02 09:00:00,47.3,35.6,29.47,North,-999,-999.0,0.0,60,0.00,,,0.00,WeatherTracker,2013-05-02 14:00:00,
2013-05-02 09:10:00,47.7,35.6,29.47,North,-999,-999.0,0.0,60,0.00,,,0.00,WeatherTracker,2013-05-02 14:10:00,
2013-05-02 09:15:00,47.8,35.6,29.47,North,-999,-999.0,0.0,59,0.00,,,0.00,WeatherTracker,2013-05-02 14:15:00,
2013-05-02 09:20:00,47.8,35.6,29.47,North,-999,-999.0,0.0,59,0.00,,,0.00,WeatherTracker,2013-05-02 14:20:00,
2013-05-02 09:25:00,47.8,35.6,29.47,North,-999,-999.0,0.0,60,0.00,,,0.00,WeatherTracker,2013-05-02 14:25:00,
2013-05-02 09:30:00,47.8,35.6,29.47,North,-999,-999.0,0.0,60,0.00,,,0.00,WeatherTracker,2013-05-02 14:30:00,
2013-05-02 09:35:00,48.0,35.6,29.47,North,-999,-999.0,0.0,60,0.00,,,0.00,WeatherTracker,2013-05-02 14:35:00,
2013-05-02 09:45:00,48.2,35.6,29.44,North,-999,-999.0,0.0,60,0.00,,,0.00,WeatherTracker,2013-05-02 14:45:00,
2013-05-02 09:50:00,47.8,35.6,29.44,North,-999,-999.0,0.0,62,0.00,,,0.00,WeatherTracker,2013-05-02 14:50:00,
2013-05-02 10:00:00,46.9,35.6,29.47,North,-999,-999.0,0.0,63,0.00,,,0.00,WeatherTracker,2013-05-02 15:00:00,
2013-05-02 10:05:00,46.9,35.6,29.47,North,-999,-999.0,0.0,63,0.00,,,0.00,WeatherTracker,2013-05-02 15:05:00,
2013-05-02 10:15:00,46.9,35.6,29.44,North,-999,-999.0,0.0,63,0.00,,,0.00,WeatherTracker,2013-05-02 15:15:00,
2013-05-02 10:20:00,46.9,35.6,29.44,North,-999,-999.0,0.0,62,0.00,,,0.00,WeatherTracker,2013-05-02 15:20:00,
2013-05-02 10:30:00,47.1,33.8,29.47,North,-999,-999.0,0.0,60,0.00,,,0.00,WeatherTracker,2013-05-02 15:30:00,
2013-05-02 10:40:00,47.1,33.8,29.47,North,-999,-999.0,0.0,59,0.00,,,0.00,WeatherTracker,2013-05-02 15:40:00,
2013-05-02 10:45:00,47.1,33.8,29.47,North,-999,-999.0,0.0,59,0.00,,,0.00,WeatherTracker,2013-05-02 15:45:00,
2013-05-02 10:55:00,47.3,33.8,29.47,North,-999,-999.0,0.0,58,0.00,,,0.00,WeatherTracker,2013-05-02 15:55:00,
2013-05-02 11:00:00,47.3,33.8,29.47,North,-999,-999.0,0.0,58,0.00,,,0.00,WeatherTracker,2013-05-02 16:00:00,
2013-05-02 11:05:00,47.3,33.8,29.47,North,-999,-999.0,0.0,57,0.00,,,0.00,WeatherTracker,2013-05-02 16:05:00,
2013-05-02 11:15:00,46.8,32.0,29.47,North,-999,-999.0,0.0,56,0.00,,,0.00,WeatherTracker,2013-05-02 16:15:00,
2013-05-02 11:20:00,46.2,32.0,29.47,North,-999,-999.0,0.0,58,0.00,,,0.00,WeatherTracker,2013-05-02 16:20:00,
2013-05-02 11:30:00,46.0,33.8,29.50,North,-999,-999.0,0.0,60,0.00,,,0.00,WeatherTracker,2013-05-02 16:30:00,
2013-05-02 11:40:00,46.2,33.8,29.50,North,-999,-999.0,0.0,61,0.00,,,0.00,WeatherTracker,2013-05-02 16:40:00,
2013-05-02 11:45:00,46.2,33.8,29.50,North,-999,-999.0,0.0,59,0.00,,,0.00,WeatherTracker,2013-05-02 16:45:00,
2013-05-02 11:55:00,46.6,32.0,29.50,North,-999,-999.0,0.0,57,0.00,,,0.00,WeatherTracker,2013-05-02 16:55:00,
2013-05-02 12:05:00,46.0,32.0,29.50,North,-999,-999.0,0.0,58,0.00,,,0.00,WeatherTracker,2013-05-02 17:05:00,
2013-05-02 12:10:00,45.9,33.8,29.50,North,-999,-999.0,0.0,60,0.00,,,0.00,WeatherTracker,2013-05-02 17:10:00,
2013-05-02 12:15:00,45.7,33.8,29.50,North,-999,-999.0,0.0,61,0.00,,,0.00,WeatherTracker,2013-05-02 17:15:00,
2013-05-02 12:20:00,45.5,32.0,29.50,North,-999,-999.0,0.0,59,0.00,,,0.00,WeatherTracker,2013-05-02 17:20:00,
2013-05-02 12:25:00,45.5,32.0,29.50,North,-999,-999.0,0.0,59,0.00,,,0.00,WeatherTracker,2013-05-02 17:25:00,
2013-05-02 12:30:00,45.9,32.0,29.50,North,-999,-999.0,0.0,59,0.00,,,0.00,WeatherTracker,2013-05-02 17:30:00,
2013-05-02 12:40:00,46.2,30.2,29.50,North,-999,-999.0,0.0,55,0.00,,,0.00,WeatherTracker,2013-05-02 17:40:00,
2013-05-02 12:45:00,46.2,30.2,29.50,North,-999,-999.0,0.0,54,0.00,,,0.00,WeatherTracker,2013-05-02 17:45:00,
2013-05-02 12:50:00,46.2,30.2,29.50,North,-999,-999.0,0.0,54,0.00,,,0.00,WeatherTracker,2013-05-02 17:50:00,
2013-05-02 13:00:00,46.0,30.2,29.47,North,-999,-999.0,0.0,53,0.00,,,0.00,WeatherTracker,2013-05-02 18:00:00,
2013-05-02 13:05:00,45.7,30.2,29.47,North,-999,-999.0,0.0,53,0.00,,,0.00,WeatherTracker,2013-05-02 18:05:00,
2013-05-02 13:15:00,45.3,30.2,29.47,North,-999,-999.0,0.0,54,0.00,,,0.00,WeatherTracker,2013-05-02 18:15:00,
2013-05-02 13:20:00,45.0,30.2,29.47,North,-999,-999.0,0.0,53,0.00,,,0.00,WeatherTracker,2013-05-02 18:20:00,
2013-05-02 13:25:00,45.1,30.2,29.50,North,-999,-999.0,0.0,54,0.00,,,0.00,WeatherTracker,2013-05-02 18:25:00,
2013-05-02 13:30:00,45.0,30.2,29.50,North,-999,-999.0,0.0,55,0.00,,,0.00,WeatherTracker,2013-05-02 18:30:00,
2013-05-02 13:40:00,44.6,32.0,29.50,North,-999,-999.0,0.0,61,0.00,,,0.00,WeatherTracker,2013-05-02 18:40:00,
2013-05-02 13:50:00,44.1,33.8,29.50,North,-999,-999.0,0.0,65,0.00,,,0.00,WeatherTracker,2013-05-02 18:50:00,
2013-05-02 13:55:00,43.7,33.8,29.47,North,-999,-999.0,0.0,66,0.00,,,0.00,WeatherTracker,2013-05-02 18:55:00,
2013-05-02 14:00:00,43.5,33.8,29.47,North,-999,-999.0,0.0,67,0.00,,,0.00,WeatherTracker,2013-05-02 19:00:00,
2013-05-02 14:05:00,43.3,33.8,29.47,North,-999,-999.0,0.0,69,0.00,,,0.00,WeatherTracker,2013-05-02 19:05:00,
2013-05-02 14:10:00,43.0,33.8,29.47,North,-999,-999.0,0.0,70,0.00,,,0.00,WeatherTracker,2013-05-02 19:10:00,
2013-05-02 14:15:00,42.8,33.8,29.47,North,-999,-999.0,0.0,71,0.00,,,0.00,WeatherTracker,2013-05-02 19:15:00,
2013-05-02 14:25:00,42.4,35.6,29.50,North,-999,-999.0,0.0,73,0.00,,,0.00,WeatherTracker,2013-05-02 19:25:00,
2013-05-02 14:30:00,42.4,35.6,29.50,North,-999,-999.0,0.0,73,0.00,,,0.00,WeatherTracker,2013-05-02 19:30:00,
2013-05-02 14:40:00,42.8,35.6,29.50,North,-999,-999.0,0.0,73,0.00,,,0.00,WeatherTracker,2013-05-02 19:40:00,
2013-05-02 14:45:00,42.8,35.6,29.50,North,-999,-999.0,0.0,73,0.00,,,0.00,WeatherTracker,2013-05-02 19:45:00,
2013-05-02 14:55:00,43.0,35.6,29.50,North,-999,-999.0,0.0,72,0.00,,,0.00,WeatherTracker,2013-05-02 19:55:00,
2013-05-02 15:00:00,43.0,33.8,29.50,North,-999,-999.0,0.0,70,0.00,,,0.00,WeatherTracker,2013-05-02 20:00:00,
2013-05-02 15:10:00,43.0,33.8,29.50,North,-999,-999.0,0.0,70,0.00,,,0.00,WeatherTracker,2013-05-02 20:10:00,
2013-05-02 15:20:00,43.2,33.8,29.50,North,-999,-999.0,0.0,68,0.00,,,0.00,WeatherTracker,2013-05-02 20:20:00,
2013-05-02 15:25:00,43.2,33.8,29.50,North,-999,-999.0,0.0,68,0.00,,,0.00,WeatherTracker,2013-05-02 20:25:00,
2013-05-02 15:35:00,43.3,33.8,29.50,North,-999,-999.0,0.0,66,0.00,,,0.00,WeatherTracker,2013-05-02 20:35:00,
2013-05-02 15:40:00,43.3,33.8,29.50,North,-999,-999.0,0.0,66,0.00,,,0.00,WeatherTracker,2013-05-02 20:40:00,
2013-05-02 15:45:00,43.2,33.8,29.50,North,-999,-999.0,0.0,67,0.00,,,0.00,WeatherTracker,2013-05-02 20:45:00,
2013-05-02 15:55:00,42.4,32.0,29.50,North,-999,-999.0,0.0,64,0.00,,,0.00,WeatherTracker,2013-05-02 20:55:00,
2013-05-02 16:00:00,42.3,32.0,29.50,North,-999,-999.0,0.0,66,0.00,,,0.00,WeatherTracker,2013-05-02 21:00:00,
2013-05-02 16:10:00,42.1,32.0,29.47,North,-999,-999.0,0.0,64,0.00,,,0.00,WeatherTracker,2013-05-02 21:10:00,
2013-05-02 16:15:00,41.9,30.2,29.47,North,-999,-999.0,0.0,62,0.00,,,0.00,WeatherTracker,2013-05-02 21:15:00,
2013-05-02 16:20:00,42.1,30.2,29.47,North,-999,-999.0,0.0,62,0.00,,,0.00,WeatherTracker,2013-05-02 21:20:00,
2013-05-02 16:25:00,42.1,30.2,29.47,North,-999,-999.0,0.0,62,0.00,,,0.00,WeatherTracker,2013-05-02 21:25:00,
2013-05-02 16:30:00,41.9,30.2,29.47,North,-999,-999.0,0.0,61,0.00,,,0.00,WeatherTracker,2013-05-02 21:30:00,
2013-05-02 16:40:00,41.7,30.2,29.50,North,-999,-999.0,0.0,60,0.00,,,0.00,WeatherTracker,2013-05-02 21:40:00,
2013-05-02 16:45:00,41.7,30.2,29.50,North,-999,-999.0,0.0,62,0.00,,,0.00,WeatherTracker,2013-05-02 21:45:00,
2013-05-02 16:50:00,41.7,30.2,29.50,North,-999,-999.0,0.0,64,0.00,,,0.00,WeatherTracker,2013-05-02 21:50:00,
2013-05-02 16:55:00,41.4,32.0,29.50,North,-999,-999.0,0.0,67,0.00,,,0.00,WeatherTracker,2013-05-02 21:55:00,
2013-05-02 17:00:00,40.8,32.0,29.50,North,-999,-999.0,0.0,69,0.00,,,0.00,WeatherTracker,2013-05-02 22:00:00,
2013-05-02 17:05:00,40.5,32.0,29.50,North,-999,-999.0,0.0,70,0.00,,,0.00,WeatherTracker,2013-05-02 22:05:00,
2013-05-02 17:10:00,40.3,32.0,29.50,North,-999,-999.0,0.0,73,0.00,,,0.00,WeatherTracker,2013-05-02 22:10:00,
2013-05-02 17:20:00,40.5,33.8,29.50,North,-999,-999.0,0.0,75,0.00,,,0.00,WeatherTracker,2013-05-02 22:20:00,
2013-05-02 17:25:00,40.5,33.8,29.50,North,-999,-999.0,0.0,75,0.00,,,0.00,WeatherTracker,2013-05-02 22:25:00,
2013-05-02 17:30:00,40.5,32.0,29.50,North,-999,-999.0,0.0,72,0.00,,,0.00,WeatherTracker,2013-05-02 22:30:00,
2013-05-02 17:35:00,40.5,32.0,29.50,North,-999,-999.0,0.0,73,0.00,,,0.00,WeatherTracker,2013-05-02 22:35:00,
2013-05-02 17:40:00,40.6,33.8,29.53,North,-999,-999.0,0.0,74,0.00,,,0.00,WeatherTracker,2013-05-02 22:40:00,
2013-05-02 17:45:00,40.6,33.8,29.53,North,-999,-999.0,0.0,74,0.00,,,0.00,WeatherTracker,2013-05-02 22:45:00,
2013-05-02 17:55:00,40.6,33.8,29.53,North,-999,-999.0,0.0,74,0.00,,,0.00,WeatherTracker,2013-05-02 22:55:00,
2013-05-02 18:00:00,40.6,33.8,29.53,North,-999,-999.0,0.0,74,0.00,,,0.00,WeatherTracker,2013-05-02 23:00:00,
2013-05-02 18:05:00,40.5,32.0,29.53,North,-999,-999.0,0.0,72,0.00,,,0.00,WeatherTracker,2013-05-02 23:05:00,
2013-05-02 18:10:00,40.5,32.0,29.53,North,-999,-999.0,0.0,72,0.00,,,0.00,WeatherTracker,2013-05-02 23:10:00,
2013-05-02 18:15:00,40.3,32.0,29.53,North,-999,-999.0,0.0,73,0.00,,,0.00,WeatherTracker,2013-05-02 23:15:00,
2013-05-02 18:20:00,40.3,33.8,29.53,North,-999,-999.0,0.0,74,0.00,,,0.00,WeatherTracker,2013-05-02 23:20:00,
2013-05-02 18:30:00,40.3,33.8,29.53,North,-999,-999.0,0.0,74,0.00,,,0.00,WeatherTracker,2013-05-02 23:30:00,
2013-05-02 18:35:00,40.1,33.8,29.53,North,-999,-999.0,0.0,75,0.00,,,0.00,WeatherTracker,2013-05-02 23:35:00,
2013-05-02 18:40:00,39.7,33.8,29.53,North,-999,-999.0,0.0,75,0.00,,,0.00,WeatherTracker,2013-05-02 23:40:00,
2013-05-02 18:50:00,39.4,32.0,29.53,North,-999,-999.0,0.0,75,0.00,,,0.00,WeatherTracker,2013-05-02 23:50:00,
2013-05-02 18:55:00,39.4,32.0,29.53,North,-999,-999.0,0.0,76,0.00,,,0.00,WeatherTracker,2013-05-02 23:55:00,
2013-05-02 19:05:00,39.2,33.8,29.53,North,-999,-999.0,0.0,77,0.00,,,0.00,WeatherTracker,2013-05-03 00:05:00,
2013-05-02 19:10:00,39.0,33.8,29.53,North,-999,-999.0,0.0,77,0.00,,,0.00,WeatherTracker,2013-05-03 00:10:00,
2013-05-02 19:20:00,38.8,32.0,29.53,North,-999,-999.0,0.0,77,0.00,,,0.00,WeatherTracker,2013-05-03 00:20:00,
2013-05-02 19:30:00,38.7,32.0,29.53,North,-999,-999.0,0.0,77,0.00,,,0.00,WeatherTracker,2013-05-03 00:30:00,
2013-05-02 19:40:00,38.3,32.0,29.53,North,-999,-999.0,0.0,77,0.00,,,0.00,WeatherTracker,2013-05-03 00:40:00,
2013-05-02 19:50:00,38.1,32.0,29.53,North,-999,-999.0,0.0,77,0.00,,,0.00,WeatherTracker,2013-05-03 00:50:00,
2013-05-02 20:00:00,38.1,32.0,29.53,North,-999,-999.0,0.0,78,0.00,,,0.00,WeatherTracker,2013-05-03 01:00:00,
2013-05-02 20:05:00,37.9,32.0,29.53,North,-999,-999.0,0.0,78,0.00,,,0.00,WeatherTracker,2013-05-03 01:05:00,
2013-05-02 20:15:00,37.8,32.0,29.53,North,-999,-999.0,0.0,79,0.00,,,0.00,WeatherTracker,2013-05-03 01:15:00,
2013-05-02 20:20:00,37.8,33.8,29.53,North,-999,-999.0,0.0,80,0.00,,,0.00,WeatherTracker,2013-05-03 01:20:00,
2013-05-02 20:25:00,37.9,33.8,29.53,North,-999,-999.0,0.0,81,0.00,,,0.00,WeatherTracker,2013-05-03 01:25:00,
2013-05-02 20:35:00,37.8,33.8,29.53,North,-999,-999.0,0.0,81,0.00,,,0.00,WeatherTracker,2013-05-03 01:35:00,
2013-05-02 20:40:00,37.8,33.8,29.53,North,-999,-999.0,0.0,82,0.00,,,0.00,WeatherTracker,2013-05-03 01:40:00,
2013-05-02 20:50:00,37.9,33.8,29.53,North,-999,-999.0,0.0,82,0.00,,,0.00,WeatherTracker,2013-05-03 01:50:00,
2013-05-02 20:55:00,37.9,33.8,29.53,North,-999,-999.0,0.0,82,0.00,,,0.00,WeatherTracker,2013-05-03 01:55:00,
2013-05-02 21:00:00,37.9,33.8,29.53,North,-999,-999.0,0.0,82,0.00,,,0.00,WeatherTracker,2013-05-03 02:00:00,
2013-05-02 21:05:00,37.9,33.8,29.53,North,-999,-999.0,0.0,82,0.00,,,0.00,WeatherTracker,2013-05-03 02:05:00,
2013-05-02 21:10:00,37.9,33.8,29.53,North,-999,-999.0,0.0,82,0.00,,,0.00,WeatherTracker,2013-05-03 02:10:00,
2013-05-02 21:15:00,37.9,33.8,29.53,North,-999,-999.0,0.0,81,0.00,,,0.00,WeatherTracker,2013-05-03 02:15:00,
2013-05-02 21:25:00,37.8,33.8,29.53,North,-999,-999.0,0.0,80,0.00,,,0.00,WeatherTracker,2013-05-03 02:25:00,
2013-05-02 21:30:00,37.8,32.0,29.53,North,-999,-999.0,0.0,79,0.00,,,0.00,WeatherTracker,2013-05-03 02:30:00,
2013-05-02 21:35:00,37.8,32.0,29.53,North,-999,-999.0,0.0,79,0.00,,,0.00,WeatherTracker,2013-05-03 02:35:00,
2013-05-02 21:45:00,37.8,32.0,29.56,North,-999,-999.0,0.0,79,0.00,,,0.00,WeatherTracker,2013-05-03 02:45:00,
2013-05-02 21:50:00,37.8,32.0,29.56,North,-999,-999.0,0.0,79,0.00,,,0.00,WeatherTracker,2013-05-03 02:50:00,
2013-05-02 22:00:00,37.9,33.8,29.53,North,-999,-999.0,0.0,80,0.00,,,0.00,WeatherTracker,2013-05-03 03:00:00,
2013-05-02 22:05:00,37.9,33.8,29.53,North,-999,-999.0,0.0,80,0.00,,,0.00,WeatherTracker,2013-05-03 03:05:00,
2013-05-02 22:10:00,37.8,33.8,29.53,North,-999,-999.0,0.0,80,0.00,,,0.00,WeatherTracker,2013-05-03 03:10:00,
2013-05-02 22:15:00,37.8,33.8,29.53,North,-999,-999.0,0.0,80,0.00,,,0.00,WeatherTracker,2013-05-03 03:15:00,
2013-05-02 22:20:00,37.6,32.0,29.53,North,-999,-999.0,0.0,80,0.00,,,0.00,WeatherTracker,2013-05-03 03:20:00,
2013-05-02 22:25:00,37.6,32.0,29.53,North,-999,-999.0,0.0,79,0.00,,,0.00,WeatherTracker,2013-05-03 03:25:00,
2013-05-02 22:35:00,37.4,32.0,29.53,North,-999,-999.0,0.0,79,0.00,,,0.00,WeatherTracker,2013-05-03 03:35:00,
2013-05-02 22:40:00,37.4,32.0,29.53,North,-999,-999.0,0.0,79,0.00,,,0.00,WeatherTracker,2013-05-03 03:40:00,
2013-05-02 22:45:00,37.4,32.0,29.53,North,-999,-999.0,0.0,79,0.00,,,0.00,WeatherTracker,2013-05-03 03:45:00,
2013-05-02 22:50:00,37.2,32.0,29.53,North,-999,-999.0,0.0,80,0.00,,,0.00,WeatherTracker,2013-05-03 03:50:00,
2013-05-02 23:00:00,37.2,32.0,29.53,North,-999,-999.0,0.0,80,0.00,,,0.00,WeatherTracker,2013-05-03 04:00:00,
2013-05-02 23:05:00,37.4,32.0,29.53,North,-999,-999.0,0.0,80,0.00,,,0.00,WeatherTracker,2013-05-03 04:05:00,
2013-05-02 23:10:00,37.4,32.0,29.53,North,-999,-999.0,0.0,80,0.00,,,0.00,WeatherTracker,2013-05-03 04:10:00,
2013-05-02 23:15:00,37.4,32.0,29.53,North,-999,-999.0,0.0,80,0.00,,,0.00,WeatherTracker,2013-05-03 04:15:00,
2013-05-02 23:25:00,37.4,32.0,29.53,North,-999,-999.0,0.0,80,0.00,,,0.00,WeatherTracker,2013-05-03 04:25:00,
2013-05-02 23:30:00,37.4,32.0,29.53,North,-999,-999.0,0.0,79,0.00,,,0.00,WeatherTracker,2013-05-03 04:30:00,
2013-05-02 23:40:00,37.6,32.0,29.53,North,-999,-999.0,0.0,78,0.00,,,0.00,WeatherTracker,2013-05-03 04:40:00,
2013-05-02 23:45:00,37.6,32.0,29.53,North,-999,-999.0,0.0,78,0.00,,,0.00,WeatherTracker,2013-05-03 04:45:00,
2013-05-02 23:50:00,37.6,32.0,29.53,North,-999,-999.0,0.0,78,0.00,,,0.00,WeatherTracker,2013-05-03 04:50:00,
2013-05-02 23:55:00,37.6,32.0,29.50,North,-999,-999.0,0.0,78,0.00,,,0.00,WeatherTracker,2013-05-03 04:55:00,